Time;durP1;ratioP1;P1;durP2;ratioP2;P2;SDS_P1;SDS_P2;PMS_P1;PMS_P2;Temp;Humidity;BMP_temperature;BMP_pressure;BME280_temperature;BME280_humidity;BME280_pressure;Samples;Min_cycle;Max_cycle;Signal;HPM_P1;HPM_P2
2023/01/24 00:02:07;;;;;;;30.00;14.25;;;;;;;7.60;51.34;103628.56;5073824;27;96838;-70
2023/01/24 00:04:33;;;;;;;29.73;14.68;;;;;;;7.65;51.35;103626.03;5069377;27;102541;-71
2023/01/24 00:07:00;;;;;;;31.95;16.48;;;;;;;7.56;51.34;103635.50;5079023;27;98899;-70
2023/01/24 00:09:27;;;;;;;35.53;15.15;;;;;;;7.60;51.58;103628.56;5068410;27;97813;-70
2023/01/24 00:11:53;;;;;;;36.00;15.05;;;;;;;7.52;51.35;103624.88;5073276;27;96859;-70
2023/01/24 00:14:21;;;;;;;33.63;16.38;;;;;;;7.67;51.22;103629.59;5072508;27;97975;-69
2023/01/24 00:16:47;;;;;;;34.05;14.57;;;;;;;7.65;51.05;103633.94;5068081;27;98702;-70
2023/01/24 00:19:13;;;;;;;34.22;16.58;;;;;;;7.48;51.15;103631.78;5075078;27;96820;-71
2023/01/24 00:21:40;;;;;;;33.35;14.98;;;;;;;7.31;51.58;103635.78;5080854;27;96830;-71
2023/01/24 00:24:07;;;;;;;30.20;15.40;;;;;;;7.43;51.43;103638.69;5073884;27;99020;-70
2023/01/24 00:26:33;;;;;;;35.20;16.10;;;;;;;7.43;51.30;103630.81;5072771;27;99721;-70
2023/01/24 00:28:59;;;;;;;30.45;15.18;;;;;;;7.47;51.18;103637.03;5067498;27;96838;-71
2023/01/24 00:31:27;;;;;;;30.27;15.43;;;;;;;7.53;51.15;103642.44;5062766;27;98897;-69
2023/01/24 00:33:53;;;;;;;32.20;15.30;;;;;;;7.48;51.35;103636.19;5073869;27;98838;-70
2023/01/24 00:36:20;;;;;;;32.53;15.27;;;;;;;7.33;51.66;103630.56;5068879;27;98939;-70
2023/01/24 00:38:46;;;;;;;30.25;15.18;;;;;;;7.49;51.22;103625.69;5082886;27;97451;-70
2023/01/24 00:41:13;;;;;;;35.20;15.95;;;;;;;7.59;51.13;103632.06;5072938;27;97386;-70
2023/01/24 00:43:39;;;;;;;32.40;16.05;;;;;;;7.50;51.06;103632.72;5062991;27;98667;-70
2023/01/24 00:46:06;;;;;;;28.92;14.32;;;;;;;7.55;50.80;103627.56;5070230;27;99247;-70
2023/01/24 00:48:34;;;;;;;29.38;14.45;;;;;;;7.39;50.85;103631.59;5073057;27;97102;-70
2023/01/24 00:51:00;;;;;;;27.42;14.70;;;;;;;7.22;51.59;103627.66;5072305;27;96903;-70
2023/01/24 00:53:27;;;;;;;27.08;13.57;;;;;;;7.35;50.80;103635.00;5072943;27;99287;-70
2023/01/24 00:55:54;;;;;;;30.17;14.55;;;;;;;7.35;50.86;103624.47;5075356;27;98894;-70
2023/01/24 00:58:21;;;;;;;27.30;14.15;;;;;;;7.31;50.81;103622.63;5066834;27;97366;-69
2023/01/24 01:00:48;;;;;;;25.30;13.50;;;;;;;7.32;50.57;103610.38;5063998;27;97639;-70
2023/01/24 01:03:17;;;;;;;26.95;14.50;;;;;;;7.33;50.71;103625.31;5069967;27;98952;-68
2023/01/24 01:05:48;;;;;;;24.27;12.70;;;;;;;7.41;50.30;103624.66;5069333;27;97739;-69
2023/01/24 01:08:15;;;;;;;22.08;12.63;;;;;;;7.50;50.14;103623.94;5072861;27;96741;-69
2023/01/24 01:10:42;;;;;;;25.75;13.15;;;;;;;7.43;49.91;103622.91;5071581;27;97398;-70
2023/01/24 01:13:11;;;;;;;27.75;13.13;;;;;;;7.43;49.93;103620.28;5068869;27;99068;-69
2023/01/24 01:15:37;;;;;;;22.13;12.13;;;;;;;7.34;50.01;103622.72;5074476;27;99293;-69
2023/01/24 01:18:04;;;;;;;24.63;12.60;;;;;;;7.40;50.22;103633.38;5076982;27;96831;-69
2023/01/24 01:20:30;;;;;;;23.77;12.35;;;;;;;7.35;49.91;103637.63;5084415;27;97218;-69
2023/01/24 01:22:58;;;;;;;23.40;12.40;;;;;;;7.29;49.99;103634.84;5074125;27;97730;-68
2023/01/24 01:25:24;;;;;;;24.95;12.63;;;;;;;7.22;50.33;103627.66;5072582;27;98880;-68
2023/01/24 01:27:51;;;;;;;21.42;12.23;;;;;;;7.17;50.23;103634.56;5074157;27;97547;-69
2023/01/24 01:30:18;;;;;;;23.65;11.75;;;;;;;7.32;50.00;103640.19;5067765;27;96798;-70
2023/01/24 01:32:44;;;;;;;23.67;12.90;;;;;;;7.26;49.97;103634.78;5069124;27;98858;-70
2023/01/24 01:35:11;;;;;;;28.35;11.82;;;;;;;7.32;49.90;103640.19;5073645;27;99281;-69
2023/01/24 01:37:37;;;;;;;23.83;12.07;;;;;;;7.30;50.12;103641.91;5075651;27;96786;-70
2023/01/24 01:40:06;;;;;;;21.13;11.75;;;;;;;7.10;50.49;103648.41;5067047;27;97178;-69
2023/01/24 01:42:45;;;;;;;26.35;12.05;;;;;;;7.16;50.46;103638.03;5074267;27;99079;-70
2023/01/24 01:45:36;;;;;;;21.27;12.18;;;;;;;7.08;50.80;103648.41;5074157;27;99387;-70
2023/01/24 01:48:06;;;;;;;24.83;11.77;;;;;;;7.13;50.48;103646.75;5082511;27;96819;-70
2023/01/24 01:50:38;;;;;;;22.00;11.88;;;;;;;6.91;50.87;103647.06;5073399;27;97178;-69
2023/01/24 01:53:06;;;;;;;21.08;12.05;;;;;;;7.20;50.26;103647.81;5080010;27;100767;-68
2023/01/24 01:55:39;;;;;;;19.40;11.15;;;;;;;7.23;50.27;103645.22;5066139;27;99392;-69
2023/01/24 01:58:05;;;;;;;25.42;11.73;;;;;;;7.12;50.29;103641.47;5066318;27;97193;-69
2023/01/24 02:00:32;;;;;;;17.65;9.50;;;;;;;7.25;50.13;103638.28;5071955;27;98701;-70
2023/01/24 02:05:44;;;;;;;16.20;9.57;;;;;;;7.10;50.10;103640.53;5070288;27;98718;-70
2023/01/24 02:08:16;;;;;;;17.65;9.60;;;;;;;6.95;50.32;103642.78;5071649;27;98465;-70
2023/01/24 02:13:28;;;;;;;19.67;10.00;;;;;;;7.07;50.22;103645.72;5077052;27;97298;-70
2023/01/24 02:16:03;;;;;;;16.15;9.27;;;;;;;7.08;50.29;103645.75;5073693;27;98587;-69
2023/01/24 02:18:30;;;;;;;18.40;9.70;;;;;;;7.11;50.03;103652.81;5072568;27;96761;-69
2023/01/24 02:20:57;;;;;;;17.98;10.38;;;;;;;6.98;50.38;103656.88;5073309;27;97748;-69
2023/01/24 02:23:31;;;;;;;20.13;9.90;;;;;;;7.14;50.51;103648.53;5080498;27;98901;-70
2023/01/24 02:26:07;;;;;;;17.75;9.63;;;;;;;7.20;49.79;103653.94;5080142;27;98747;-70
2023/01/24 02:28:34;;;;;;;17.77;9.90;;;;;;;7.17;49.75;103645.97;5070981;27;97203;-70
2023/01/24 02:31:02;;;;;;;18.95;9.13;;;;;;;7.17;49.90;103656.50;5071110;27;97340;-70
2023/01/24 02:33:29;;;;;;;14.63;8.90;;;;;;;6.91;50.34;103659.31;5068023;27;98963;-70
2023/01/24 02:36:19;;;;;;;17.48;8.75;;;;;;;6.91;49.94;103652.31;5069027;27;100827;-70
2023/01/24 02:38:50;;;;;;;18.60;8.35;;;;;;;7.01;49.98;103661.34;5073447;27;97326;-69
2023/01/24 02:41:23;;;;;;;16.02;8.75;;;;;;;6.98;50.15;103651.63;5078512;27;96805;-69
2023/01/24 02:43:53;;;;;;;14.88;8.25;;;;;;;7.15;49.08;103657.31;5066739;27;99000;-70
2023/01/24 02:46:19;;;;;;;15.10;8.63;;;;;;;7.03;49.22;103659.63;5066652;27;100179;-68
2023/01/24 02:48:46;;;;;;;27.73;10.23;;;;;;;7.08;49.09;103655.38;5072723;27;97297;-70
2023/01/24 02:53:56;;;;;;;14.43;8.00;;;;;;;7.00;49.03;103652.56;5079350;27;97262;-71
2023/01/24 02:59:16;;;;;;;11.77;7.18;;;;;;;6.96;49.26;103660.31;5054901;27;97342;-71
2023/01/24 03:01:42;;;;;;;12.60;7.18;;;;;;;7.15;48.72;103646.81;5070741;27;96959;-71
2023/01/24 03:04:10;;;;;;;12.75;7.03;;;;;;;7.15;48.31;103657.31;5078945;27;102092;-70
2023/01/24 03:06:36;;;;;;;12.90;7.80;;;;;;;7.15;48.04;103650.28;5063027;27;98979;-70
2023/01/24 03:09:17;;;;;;;14.98;8.32;;;;;;;7.06;48.47;103644.81;5064763;27;97113;-69
2023/01/24 03:11:46;;;;;;;13.20;7.63;;;;;;;7.01;48.37;103650.81;5076902;27;97219;-69
2023/01/24 03:36:07;;;;;;;14.13;8.27;;;;;;;6.97;49.10;103654.22;5074386;27;97236;-68
2023/01/24 03:41:18;;;;;;;12.73;7.43;;;;;;;7.11;48.59;103644.94;5059381;27;98820;-70
2023/01/24 03:43:46;;;;;;;12.88;8.48;;;;;;;7.07;48.31;103636.09;5068951;27;96882;-69
2023/01/24 03:46:12;;;;;;;12.13;7.68;;;;;;;6.72;48.68;103637.81;5069304;27;99091;-70
2023/01/24 03:48:39;;;;;;;12.13;7.03;;;;;;;6.90;48.76;103644.38;5063860;27;99156;-70
2023/01/24 03:53:49;;;;;;;15.07;7.32;;;;;;;7.00;48.57;103642.03;5064345;27;96803;-72
2023/01/24 03:56:16;;;;;;;13.65;7.82;;;;;;;6.98;48.44;103638.47;5068434;27;98998;-70
2023/01/24 03:58:42;;;;;;;12.85;7.75;;;;;;;7.03;48.14;103638.59;5058610;27;100769;-69
2023/01/24 04:01:10;;;;;;;14.10;7.72;;;;;;;6.88;48.42;103636.47;5067628;27;97245;-70
2023/01/24 04:03:36;;;;;;;14.52;7.82;;;;;;;6.91;48.47;103641.81;5062205;27;97764;-70
2023/01/24 04:06:02;;;;;;;14.38;7.93;;;;;;;7.00;48.19;103636.78;5076531;27;98232;-70
2023/01/24 04:08:29;;;;;;;13.90;7.72;;;;;;;6.82;48.24;103636.34;5081739;27;99049;-69
2023/01/24 04:10:56;;;;;;;12.68;7.55;;;;;;;6.94;48.27;103638.38;5069083;27;97764;-67
2023/01/24 04:13:22;;;;;;;14.30;7.22;;;;;;;6.82;48.17;103635.44;5073648;27;96859;-69
2023/01/24 04:15:49;;;;;;;12.82;7.72;;;;;;;6.69;48.35;103632.50;5071009;27;98654;-69
2023/01/24 04:18:16;;;;;;;12.98;8.05;;;;;;;6.70;48.56;103635.97;5072926;27;99336;-69
2023/01/24 04:20:43;;;;;;;12.73;8.10;;;;;;;6.62;48.83;103633.19;5080466;27;96855;-69
2023/01/24 04:23:11;;;;;;;13.43;8.05;;;;;;;6.61;48.91;103641.91;5081327;27;96749;-69
2023/01/24 04:25:38;;;;;;;14.82;7.82;;;;;;;6.63;48.75;103642.81;5081429;27;99327;-69
2023/01/24 04:28:05;;;;;;;16.58;8.52;;;;;;;6.66;49.19;103645.53;5069760;27;101104;-70
2023/01/24 04:30:31;;;;;;;14.45;7.85;;;;;;;6.60;48.92;103647.13;5070357;27;97044;-70
2023/01/24 04:32:57;;;;;;;13.27;7.88;;;;;;;6.48;49.61;103636.28;5067946;27;96874;-69
2023/01/24 04:35:28;;;;;;;14.05;8.27;;;;;;;6.50;49.61;103647.72;5075285;27;98127;-69
2023/01/24 04:37:58;;;;;;;13.63;8.07;;;;;;;6.78;48.96;103644.97;5073829;27;98939;-69
2023/01/24 04:40:25;;;;;;;16.13;8.20;;;;;;;6.74;48.46;103636.13;5070085;27;96969;-70
2023/01/24 04:42:51;;;;;;;12.95;7.75;;;;;;;6.74;48.80;103636.13;5079761;27;98679;-70
2023/01/24 04:45:17;;;;;;;12.27;7.88;;;;;;;6.84;48.27;103631.09;5075692;27;102220;-70
2023/01/24 04:47:44;;;;;;;13.18;8.25;;;;;;;6.70;48.24;103631.63;5079817;27;97557;-70
2023/01/24 04:50:12;;;;;;;15.35;8.75;;;;;;;6.66;48.31;103629.78;5072883;27;97444;-70
2023/01/24 04:52:39;;;;;;;13.77;8.50;;;;;;;6.75;47.78;103631.75;5075857;27;98665;-70
2023/01/24 04:55:06;;;;;;;16.58;9.50;;;;;;;6.58;48.10;103631.31;5071247;27;99369;-70
2023/01/24 04:57:33;;;;;;;13.20;9.13;;;;;;;6.71;48.23;103636.03;5077108;27;99236;-69
2023/01/24 04:59:59;;;;;;;15.18;8.80;;;;;;;6.78;47.97;103632.72;5065685;27;96846;-70
2023/01/24 05:02:26;;;;;;;14.60;8.32;;;;;;;6.86;48.06;103632.03;5063228;27;98387;-71
2023/01/24 05:04:52;;;;;;;12.05;8.15;;;;;;;6.80;47.75;103625.78;5067915;27;99172;-70
2023/01/24 05:07:19;;;;;;;16.13;8.60;;;;;;;6.72;48.05;103622.03;5078542;27;99093;-70
2023/01/24 05:09:49;;;;;;;15.18;8.88;;;;;;;6.83;47.68;103622.31;5071831;27;96891;-71
2023/01/24 05:12:15;;;;;;;12.93;8.48;;;;;;;6.76;47.69;103629.16;5070342;27;96707;-69
2023/01/24 05:14:42;;;;;;;13.43;7.63;;;;;;;6.82;47.51;103620.56;5071475;27;98421;-69
2023/01/24 05:17:08;;;;;;;14.13;8.05;;;;;;;6.71;47.64;103628.16;5067343;27;98907;-69
2023/01/24 05:19:34;;;;;;;12.65;8.65;;;;;;;6.66;47.77;103623.63;5084948;27;97022;-71
2023/01/24 05:22:01;;;;;;;13.75;9.00;;;;;;;6.60;47.41;103633.97;5086688;27;96904;-70
2023/01/24 05:24:27;;;;;;;15.57;8.73;;;;;;;6.49;48.38;103628.44;5087212;27;98962;-70
2023/01/24 05:26:55;;;;;;;14.95;9.25;;;;;;;6.63;48.02;103628.81;5072436;27;99685;-69
2023/01/24 05:29:21;;;;;;;15.20;9.05;;;;;;;6.62;47.98;103627.94;5084200;27;99026;-70
2023/01/24 05:31:47;;;;;;;13.13;8.23;;;;;;;6.71;48.03;103629.88;5072718;27;96787;-70
2023/01/24 05:34:14;;;;;;;16.73;8.50;;;;;;;6.84;47.82;103633.72;5071011;27;99204;-69
2023/01/24 05:36:40;;;;;;;12.48;8.55;;;;;;;6.74;48.01;103630.88;5070292;27;99046;-70
2023/01/24 05:39:07;;;;;;;16.38;8.50;;;;;;;6.69;48.17;103643.00;5072003;27;97246;-70
2023/01/24 05:41:33;;;;;;;15.63;9.35;;;;;;;6.78;48.17;103637.09;5072078;27;96825;-69
2023/01/24 05:44:01;;;;;;;21.77;10.98;;;;;;;6.94;47.85;103634.00;5077072;27;98858;-72
2023/01/24 05:46:29;;;;;;;14.77;8.75;;;;;;;6.92;47.85;103634.81;5066206;27;99054;-69
2023/01/24 05:48:56;;;;;;;14.60;9.13;;;;;;;6.76;48.25;103630.91;5063198;27;99015;-70
2023/01/24 05:51:22;;;;;;;15.23;8.52;;;;;;;6.62;48.01;103643.69;5069801;27;97301;-70
2023/01/24 05:53:49;;;;;;;15.38;8.93;;;;;;;6.84;48.15;103649.47;5072419;27;99409;-70
2023/01/24 05:56:18;;;;;;;13.40;8.10;;;;;;;6.67;48.33;103655.22;5066786;27;99077;-70
2023/01/24 05:58:46;;;;;;;14.13;8.35;;;;;;;6.71;48.55;103645.66;5067680;27;97349;-70
2023/01/24 06:01:16;;;;;;;14.10;8.63;;;;;;;6.75;48.35;103658.94;5066717;27;98548;-69
2023/01/24 06:03:44;;;;;;;12.55;8.77;;;;;;;6.85;47.89;103660.03;5075850;27;99468;-70
2023/01/24 06:06:12;;;;;;;13.07;8.52;;;;;;;6.77;48.36;103654.59;5077647;27;98852;-69
2023/01/24 06:08:38;;;;;;;16.50;8.35;;;;;;;6.81;48.12;103650.31;5065192;27;97011;-69
2023/01/24 06:11:06;;;;;;;18.08;8.57;;;;;;;6.93;47.61;103660.25;5072162;27;97093;-69
2023/01/24 06:13:33;;;;;;;16.02;9.38;;;;;;;6.97;47.49;103656.84;5077094;27;101542;-69
2023/01/24 06:16:05;;;;;;;14.05;8.60;;;;;;;6.94;47.56;103659.41;5061307;27;99181;-70
2023/01/24 06:18:33;;;;;;;15.90;8.35;;;;;;;6.72;48.03;103669.34;5065928;27;97933;-70
2023/01/24 06:21:06;;;;;;;15.65;8.63;;;;;;;6.71;47.97;103672.81;5066011;27;96979;-71
2023/01/24 06:23:32;;;;;;;16.98;9.07;;;;;;;6.73;48.10;103668.50;5068105;27;98973;-71
2023/01/24 06:25:59;;;;;;;16.23;8.95;;;;;;;6.70;48.16;103676.28;5066827;27;98857;-70
2023/01/24 06:28:26;;;;;;;18.92;8.43;;;;;;;6.74;48.22;103680.81;5075866;27;97288;-69
2023/01/24 06:31:02;;;;;;;14.60;8.95;;;;;;;6.87;47.96;103682.00;5075397;27;97549;-71
2023/01/24 06:33:37;;;;;;;18.58;8.90;;;;;;;6.89;47.90;103687.31;5074241;27;98832;-70
2023/01/24 06:36:32;;;;;;;17.00;8.45;;;;;;;6.93;47.70;103682.16;5063535;27;102362;-70
2023/01/24 06:38:59;;;;;;;17.85;8.98;;;;;;;6.91;47.86;103686.50;5070299;27;97404;-69
2023/01/24 06:41:26;;;;;;;18.65;9.20;;;;;;;6.75;47.88;103687.84;5061870;27;97518;-69
2023/01/24 06:43:53;;;;;;;20.67;9.23;;;;;;;6.73;47.99;103699.16;5065746;27;99218;-70
2023/01/24 06:46:19;;;;;;;19.35;9.85;;;;;;;6.84;48.07;103695.06;5071620;27;99121;-70
2023/01/24 06:48:47;;;;;;;22.67;9.98;;;;;;;6.85;47.85;103690.69;5064376;27;97528;-69
2023/01/24 06:51:15;;;;;;;21.30;9.88;;;;;;;6.91;47.65;103698.75;5064776;27;98721;-70
2023/01/24 06:53:41;;;;;;;23.48;10.55;;;;;;;6.83;47.84;103695.91;5059624;27;101300;-70
2023/01/24 06:56:08;;;;;;;27.10;9.93;;;;;;;6.80;47.56;103703.72;5076476;27;99287;-70
2023/01/24 06:58:35;;;;;;;29.70;11.20;;;;;;;6.70;48.13;103702.56;5076353;27;97154;-70
2023/01/24 07:01:01;;;;;;;26.58;11.07;;;;;;;6.72;48.01;103702.63;5081424;27;97289;-70
2023/01/24 07:03:27;;;;;;;26.15;10.48;;;;;;;6.74;48.00;103709.72;5075218;27;98128;-70
2023/01/24 07:05:55;;;;;;;28.63;11.82;;;;;;;6.70;48.00;103715.72;5068272;27;99098;-70
2023/01/24 07:08:21;;;;;;;26.15;10.82;;;;;;;6.82;47.90;103709.03;5075066;27;97585;-70
2023/01/24 07:10:48;;;;;;;33.58;11.90;;;;;;;6.71;47.67;103714.88;5074323;27;96751;-70
2023/01/24 07:13:15;;;;;;;38.92;13.88;;;;;;;6.86;47.32;103726.66;5071998;27;98978;-71
2023/01/24 07:15:41;;;;;;;43.38;17.48;;;;;;;6.95;47.35;103726.91;5071746;27;97935;-70
2023/01/24 07:18:09;;;;;;;36.00;13.82;;;;;;;6.88;47.67;103720.59;5071849;27;97352;-69
2023/01/24 07:20:36;;;;;;;36.17;13.00;;;;;;;6.73;47.99;103731.59;5075105;27;97073;-70
2023/01/24 07:23:04;;;;;;;39.72;13.23;;;;;;;6.90;47.61;103736.38;5068372;27;98843;-70
2023/01/24 07:25:31;;;;;;;33.72;12.85;;;;;;;6.82;47.52;103737.94;5069190;27;99163;-70
2023/01/24 07:27:58;;;;;;;35.65;13.07;;;;;;;6.88;47.77;103732.84;5065153;27;97731;-70
2023/01/24 07:30:25;;;;;;;37.05;14.98;;;;;;;6.87;47.90;103734.59;5074384;27;96867;-69
2023/01/24 07:32:51;;;;;;;35.63;13.35;;;;;;;6.83;47.72;103731.84;5079929;27;97889;-70
2023/01/24 07:35:18;;;;;;;42.75;13.38;;;;;;;6.60;48.03;103736.44;5068030;27;99011;-72
2023/01/24 07:37:44;;;;;;;45.70;15.80;;;;;;;6.75;47.72;103735.16;5062791;27;98157;-69
2023/01/24 07:40:13;;;;;;;39.92;14.60;;;;;;;6.73;47.93;103730.69;5069041;27;98789;-71
2023/01/24 07:42:39;;;;;;;42.58;14.43;;;;;;;6.91;47.52;103740.81;5077852;27;98848;-71
2023/01/24 07:45:07;;;;;;;37.33;13.13;;;;;;;6.96;47.40;103733.91;5069610;27;98937;-71
2023/01/24 07:47:33;;;;;;;38.53;16.38;;;;;;;7.05;47.22;103729.81;5068769;27;98976;-66
2023/01/24 07:50:00;;;;;;;80.40;32.17;;;;;;;7.17;47.17;103721.34;5074320;27;97320;-71
2023/01/24 07:52:26;;;;;;;44.78;18.98;;;;;;;7.13;47.07;103725.66;5072891;27;99374;-69
2023/01/24 07:54:52;;;;;;;50.50;21.58;;;;;;;7.10;47.33;103729.91;5067199;27;99157;-70
2023/01/24 07:57:20;;;;;;;42.72;18.15;;;;;;;7.06;46.99;103731.59;5076588;27;97047;-70
2023/01/24 07:59:46;;;;;;;32.45;12.98;;;;;;;7.11;46.97;103734.34;5068515;27;96999;-70
2023/01/24 08:02:13;;;;;;;38.13;14.65;;;;;;;7.06;47.40;103746.47;5069121;27;99396;-70
2023/01/24 08:04:40;;;;;;;31.42;12.52;;;;;;;6.95;47.73;103738.31;5078093;27;98978;-70
2023/01/24 08:07:18;;;;;;;41.15;14.68;;;;;;;7.01;47.76;103743.75;5076834;27;98768;-70
2023/01/24 08:09:45;;;;;;;34.88;12.55;;;;;;;7.08;47.23;103740.44;5076429;27;96842;-69
2023/01/24 08:12:12;;;;;;;34.90;12.20;;;;;;;7.13;47.18;103749.31;5065816;27;99034;-71
2023/01/24 08:14:40;;;;;;;32.40;12.30;;;;;;;6.92;47.77;103755.72;5079266;27;99345;-71
2023/01/24 08:17:09;;;;;;;36.88;13.18;;;;;;;6.99;47.57;103757.69;5072035;27;99828;-71
2023/01/24 08:19:36;;;;;;;39.80;14.68;;;;;;;7.09;47.31;103752.69;5077350;27;97077;-70
2023/01/24 08:22:03;;;;;;;32.38;13.77;;;;;;;7.14;47.51;103752.84;5071508;27;97962;-69
2023/01/24 08:24:33;;;;;;;32.65;12.63;;;;;;;7.24;47.13;103753.94;5073332;27;99521;-70
2023/01/24 08:27:00;;;;;;;33.58;13.18;;;;;;;6.89;47.63;103756.56;5064710;27;97384;-71
2023/01/24 08:29:26;;;;;;;29.05;12.90;;;;;;;7.18;47.40;103752.06;5064015;27;98256;-70
2023/01/24 08:31:54;;;;;;;36.10;12.68;;;;;;;7.14;47.51;103756.38;5067753;27;98309;-70
2023/01/24 08:34:21;;;;;;;31.45;13.07;;;;;;;7.39;47.16;103749.97;5057758;27;99137;-71
2023/01/24 08:36:47;;;;;;;37.42;14.02;;;;;;;6.94;47.33;103762.81;5061299;27;99955;-69
2023/01/24 08:39:14;;;;;;;41.72;13.23;;;;;;;7.07;47.76;103756.16;5079835;27;97258;-70
2023/01/24 08:41:45;;;;;;;34.22;13.05;;;;;;;7.17;47.37;103753.78;5067691;27;98633;-70
2023/01/24 08:44:12;;;;;;;35.85;13.52;;;;;;;7.30;47.30;103749.75;5063471;27;98828;-71
2023/01/24 08:46:39;;;;;;;41.55;14.15;;;;;;;7.24;47.09;103754.84;5060124;27;97214;-71
2023/01/24 08:49:07;;;;;;;38.53;14.20;;;;;;;7.17;47.36;103751.16;5064010;27;96908;-70
2023/01/24 08:51:33;;;;;;;36.03;13.35;;;;;;;7.44;47.00;103737.81;5056626;27;100022;-71
2023/01/24 08:53:59;;;;;;;40.40;13.80;;;;;;;7.40;46.74;103749.13;5063535;27;99225;-70
2023/01/24 08:56:26;;;;;;;54.10;20.08;;;;;;;7.11;47.03;103750.13;5053890;27;98426;-69
2023/01/24 08:58:52;;;;;;;39.47;14.05;;;;;;;7.45;47.01;103746.63;5061161;27;99096;-70
2023/01/24 09:01:20;;;;;;;40.80;13.85;;;;;;;7.52;46.63;103743.28;5052865;27;99427;-70
2023/01/24 09:03:46;;;;;;;41.70;14.35;;;;;;;7.53;46.48;103753.84;5056738;27;102871;-71
2023/01/24 09:06:14;;;;;;;43.00;13.60;;;;;;;7.58;46.72;103748.69;5054888;27;97364;-70
2023/01/24 09:08:40;;;;;;;38.88;14.07;;;;;;;7.52;46.70;103754.69;5060908;27;97261;-68
2023/01/24 09:11:07;;;;;;;44.30;14.73;;;;;;;7.70;46.63;103754.25;5068271;27;101365;-69
2023/01/24 09:13:33;;;;;;;50.00;15.52;;;;;;;7.70;46.11;103756.00;5069645;27;98730;-69
2023/01/24 09:16:03;;;;;;;47.58;16.20;;;;;;;7.64;46.15;103755.84;5065611;27;97677;-69
2023/01/24 09:18:30;;;;;;;56.30;16.42;;;;;;;7.79;46.24;103757.13;5070594;27;96826;-70
2023/01/24 09:21:00;;;;;;;49.00;15.52;;;;;;;7.77;46.17;103766.72;5069307;27;99475;-70
2023/01/24 09:23:30;;;;;;;54.92;15.93;;;;;;;7.83;46.25;103761.59;5061002;27;98762;-70
2023/01/24 09:25:57;;;;;;;67.55;19.05;;;;;;;7.66;46.39;103757.66;5056436;27;98356;-69
2023/01/24 09:28:23;;;;;;;64.78;18.63;;;;;;;7.82;46.15;103762.44;5059735;27;97988;-69
2023/01/24 09:30:50;;;;;;;63.63;16.00;;;;;;;8.06;46.03;103754.22;5065785;27;99289;-68
2023/01/24 09:33:19;;;;;;;62.88;17.35;;;;;;;7.91;45.90;103756.50;5068240;27;101651;-70
2023/01/24 09:35:52;;;;;;;64.15;17.25;;;;;;;7.98;45.82;103761.94;5059124;27;98502;-71
2023/01/24 09:38:19;;;;;;;54.35;17.98;;;;;;;7.99;46.01;103762.84;5066156;27;96998;-70
2023/01/24 09:40:55;;;;;;;64.57;19.30;;;;;;;7.96;45.84;103762.75;5071957;27;99244;-70
2023/01/24 09:43:42;;;;;;;64.75;18.58;;;;;;;7.70;46.16;103758.63;5064701;27;100913;-69
2023/01/24 09:46:19;;;;;;;68.38;19.67;;;;;;;7.42;46.81;103755.31;5064715;27;97466;-71
2023/01/24 09:48:48;;;;;;;63.65;19.27;;;;;;;7.71;46.33;103755.13;5063982;27;97193;-69
2023/01/24 09:51:20;;;;;;;61.83;19.45;;;;;;;7.87;46.07;103757.28;5073666;27;99322;-69
2023/01/24 09:53:52;;;;;;;69.82;19.40;;;;;;;8.08;45.47;103749.88;5064521;27;101844;-71
2023/01/24 09:56:30;;;;;;;72.25;19.75;;;;;;;8.10;45.47;103755.19;5068985;27;96854;-70
2023/01/24 09:59:10;;;;;;;64.68;19.33;;;;;;;8.36;45.08;103749.66;5066173;27;97154;-70
2023/01/24 10:01:38;;;;;;;72.25;19.85;;;;;;;8.35;45.17;103747.88;5069748;27;99327;-70
2023/01/24 10:04:05;;;;;;;62.20;19.63;;;;;;;8.36;44.79;103740.84;5072025;27;99009;-70
2023/01/24 10:06:33;;;;;;;71.20;19.35;;;;;;;8.21;45.54;103741.38;5078909;27;97054;-71
2023/01/24 10:09:08;;;;;;;66.20;19.83;;;;;;;8.27;45.43;103741.50;5079528;27;97184;-69
2023/01/24 10:11:49;;;;;;;69.83;21.57;;;;;;;8.40;45.03;103740.94;5075815;27;97898;-70
2023/01/24 10:14:33;;;;;;;76.57;21.67;;;;;;;8.42;44.95;103726.91;5070136;27;98840;-73
2023/01/24 10:17:23;;;;;;;73.93;22.58;;;;;;;8.53;44.47;103722.78;5070757;27;96790;-70
2023/01/24 10:20:06;;;;;;;83.45;22.17;;;;;;;8.40;44.50;103722.50;5074383;27;97119;-70
2023/01/24 10:22:51;;;;;;;87.07;23.42;;;;;;;8.40;44.86;103719.00;5068419;27;98977;-70
2023/01/24 10:25:25;;;;;;;88.20;24.35;;;;;;;8.23;44.79;103720.34;5066558;27;98803;-71
2023/01/24 10:27:57;;;;;;;84.53;25.35;;;;;;;8.29;44.80;103709.94;5069471;27;97151;-70
2023/01/24 10:30:31;;;;;;;88.90;23.95;;;;;;;8.36;44.57;103717.13;5075093;27;96756;-71
2023/01/24 10:33:04;;;;;;;85.82;24.77;;;;;;;8.39;44.43;103712.84;5083448;27;98987;-71
2023/01/24 10:35:37;;;;;;;83.65;24.08;;;;;;;8.34;44.78;103710.94;5074029;27;97516;-71
2023/01/24 10:38:08;;;;;;;84.35;23.38;;;;;;;8.66;44.22;103716.88;5072029;27;97240;-69
2023/01/24 10:40:34;;;;;;;84.53;23.15;;;;;;;8.59;44.07;103715.00;5073131;27;97209;-71
2023/01/24 10:43:07;;;;;;;84.82;24.63;;;;;;;8.65;44.25;103721.28;5078790;27;98946;-69
2023/01/24 10:45:46;;;;;;;86.05;23.17;;;;;;;8.54;44.25;103721.88;5073037;27;98878;-70
2023/01/24 10:48:28;;;;;;;88.30;24.98;;;;;;;8.37;44.53;103717.19;5081501;27;96786;-70
2023/01/24 10:50:54;;;;;;;91.22;25.60;;;;;;;8.51;44.76;103722.75;5076747;27;96909;-70
2023/01/24 10:53:24;;;;;;;93.30;25.17;;;;;;;8.62;44.26;103721.19;5080252;27;99534;-71
2023/01/24 10:55:59;;;;;;;80.97;23.75;;;;;;;8.63;44.57;103720.34;5075259;27;98787;-69
2023/01/24 10:58:28;;;;;;;86.65;24.27;;;;;;;8.46;44.45;103716.50;5067534;27;98350;-70
2023/01/24 11:00:59;;;;;;;90.40;24.65;;;;;;;8.44;44.43;103715.56;5068161;27;96784;-71
2023/01/24 11:03:28;;;;;;;98.85;25.13;;;;;;;8.75;43.97;103717.94;5072827;27;99184;-69
2023/01/24 11:05:56;;;;;;;87.90;25.38;;;;;;;8.51;44.25;103717.47;5070945;27;99215;-70
2023/01/24 11:08:24;;;;;;;73.75;23.00;;;;;;;8.56;44.04;103725.44;5075361;27;97015;-71
2023/01/24 11:10:53;;;;;;;92.38;25.52;;;;;;;8.53;44.06;103720.13;5070850;27;97511;-70
2023/01/24 11:13:29;;;;;;;86.65;25.73;;;;;;;8.54;44.20;103722.78;5065958;27;100653;-70
2023/01/24 11:16:02;;;;;;;85.30;24.98;;;;;;;8.66;44.23;103712.47;5072349;27;100792;-70
2023/01/24 11:18:30;;;;;;;87.80;26.45;;;;;;;8.64;44.04;103718.59;5072753;27;96707;-70
2023/01/24 11:21:12;;;;;;;87.50;25.48;;;;;;;8.71;44.00;103707.31;5076767;27;97164;-70
2023/01/24 11:23:39;;;;;;;76.97;23.83;;;;;;;8.54;44.00;103706.97;5067609;27;99405;-70
2023/01/24 11:26:07;;;;;;;77.57;23.40;;;;;;;8.95;43.64;103707.75;5070873;27;97642;-71
2023/01/24 11:28:37;;;;;;;83.82;24.50;;;;;;;8.88;43.74;103697.97;5071054;27;96735;-70
2023/01/24 11:31:07;;;;;;;88.35;23.98;;;;;;;8.85;43.75;103702.31;5064845;27;97028;-69
2023/01/24 11:34:01;;;;;;;82.63;23.33;;;;;;;8.81;43.89;103706.63;5069715;27;98999;-70
2023/01/24 11:36:41;;;;;;;79.82;22.95;;;;;;;8.74;43.92;103696.81;5066252;27;102184;-71
2023/01/24 11:39:17;;;;;;;78.30;23.80;;;;;;;8.50;44.57;103704.25;5065243;27;98370;-69
2023/01/24 11:41:50;;;;;;;84.93;23.30;;;;;;;8.67;44.15;103695.81;5066543;27;96782;-69
2023/01/24 11:44:36;;;;;;;74.65;21.30;;;;;;;8.74;43.84;103692.44;5065535;27;99471;-70
2023/01/24 11:47:09;;;;;;;77.82;22.67;;;;;;;8.65;43.78;103689.63;5070626;27;100879;-69
2023/01/24 11:49:53;;;;;;;77.32;23.58;;;;;;;8.54;43.96;103688.50;5079053;27;97159;-71
2023/01/24 11:52:39;;;;;;;76.53;23.17;;;;;;;8.62;44.48;103688.66;5067930;27;97154;-71
2023/01/24 11:55:14;;;;;;;71.83;21.80;;;;;;;8.64;44.27;103686.97;5064114;27;100013;-70
2023/01/24 11:57:51;;;;;;;74.13;21.85;;;;;;;8.91;43.81;103684.84;5075403;27;98217;-72
2023/01/24 12:00:31;;;;;;;75.85;22.65;;;;;;;8.70;44.06;103690.59;5061329;27;98620;-71
2023/01/24 12:03:26;;;;;;;67.88;21.23;;;;;;;8.83;43.52;103678.53;5070464;27;98879;-69
2023/01/24 12:06:00;;;;;;;71.95;22.75;;;;;;;8.87;43.71;103685.63;5056484;27;99138;-71
2023/01/24 12:08:43;;;;;;;74.30;22.15;;;;;;;8.91;43.65;103683.94;5066040;27;99078;-72